Accueil
METAR-TAF:

METAR-TAF

Aéroports :

Mountain Village, Alaska, États-Unis

latitude: 62-05-43N, longitude: 163-40-55W, altitude: 103 m

Observation

Le bulletin a été fait il y a 1 heure et 48 minutes, à 10:02 UTC
Vent 15 kt de est
Température -18°C
Humidité 71%
Pression 1006 hPa
Visibilité: 16.1 km
Ciel clair

METAR: PAMO 181002Z AUTO 09015KT 10SM CLR M18/M22 A2970 RMK AO2 SLP068 T11781222 FZRANO

Heure: 02:50 (11:50 UTC)


TAF: absent

Observations et prévisions météorologiques de plus de 4000 aéroports (messages METAR et TAF).

Les stations disponibles sont représentées par des disques jaunes et rouges sur la carte.

Passer la souris dessus pour voir le nom de la station.

Cliquer dessus pour voir les observations et prévisions météorologiques.

Pour changer de carte: cliquez sur les boutons verts avec une croix noire pour zoomer, sur le bouton vert avec un tiret pour effectuer un zoom arrière, ou sur les flèches vertes pour les cartes adjacentes.


METAR-TAF: